Davilla, Texas
Current Conditions -  °F | °C
As of 3:23 PM on Saturday 22 Nov 2014 (Local Time) from KGRK Reporting Station
Thunderstorm Thunderstorm  
Wind Chill: 61°   Ceiling: 300
Heat Index: 61°   Visibility: 0.5mi
Dew Point: 61°   Wind: 9mph
Humidity: 100%   Direction: 110°ESE
Pressure: 29.82"   Gusts: NA
Location:  30.79°N, 97.28°W
Report Text: KGRK 222123Z AUTO 11008KT 1/2SM R15/4500FT +RA FG VCTS OVC003 16/16 A2982 RMK AO2 LTG DSNT ALQDS PRESRR
Loading
Personal Weather Stations






























Interactive Weather Map New forecast layout! Learn more

10-Day Weather Forecast

Advertisements
Track Severe Weather on mobile